Time;durP1;ratioP1;P1;durP2;ratioP2;P2;SDS_P1;SDS_P2;PMS_P1;PMS_P2;Temp;Humidity;BMP_temperature;BMP_pressure;BME280_temperature;BME280_humidity;BME280_pressure;Samples;Min_cycle;Max_cycle;Signal;HPM_P1;HPM_P2
2023/09/10 00:01:25;;;;;;;2.30;1.83;;;25.60;58.10;;;;;;6390471;27;20524;-51
2023/09/10 00:04:27;;;;;;;2.00;1.60;;;25.60;58.10;;;;;;6389984;27;20038;-47
2023/09/10 00:07:29;;;;;;;1.58;1.45;;;25.20;57.70;;;;;;6392429;27;20039;-49
2023/09/10 00:10:31;;;;;;;1.73;1.42;;;25.30;57.80;;;;;;6392377;27;20042;-51
2023/09/10 00:13:36;;;;;;;2.03;1.83;;;25.50;58.00;;;;;;6357870;27;20061;-50
2023/09/10 00:16:38;;;;;;;2.25;1.85;;;25.50;58.10;;;;;;6391502;27;20118;-50
2023/09/10 00:19:40;;;;;;;1.83;1.42;;;25.50;58.10;;;;;;6391419;27;20066;-48
2023/09/10 00:22:42;;;;;;;2.03;1.70;;;25.50;58.20;;;;;;6391401;27;20046;-51
2023/09/10 00:25:44;;;;;;;1.98;1.40;;;25.50;58.20;;;;;;6390383;27;20060;-48
2023/09/10 00:28:49;;;;;;;2.47;1.85;;;25.10;58.00;;;;;;6391326;27;20117;-49
2023/09/10 00:31:51;;;;;;;2.00;1.30;;;25.50;58.40;;;;;;6391430;27;20552;-47
2023/09/10 00:34:53;;;;;;;1.60;1.50;;;25.30;58.30;;;;;;6391054;27;20031;-50
2023/09/10 00:37:55;;;;;;;2.00;1.40;;;25.60;58.60;;;;;;6391121;27;20058;-49
2023/09/10 00:40:58;;;;;;;1.88;1.30;;;25.40;58.40;;;;;;6388198;27;20042;-49
2023/09/10 00:43:59;;;;;;;2.03;1.63;;;25.50;58.60;;;;;;6391195;27;20065;-50
2023/09/10 00:47:01;;;;;;;1.40;1.20;;;25.50;58.60;;;;;;6391892;27;20777;-49
2023/09/10 00:50:03;;;;;;;1.88;1.65;;;25.60;58.80;;;;;;6391293;27;20494;-49
2023/09/10 00:53:09;;;;;;;2.38;1.70;;;25.30;58.60;;;;;;6391597;27;20031;-47
2023/09/10 00:56:11;;;;;;;2.25;1.58;;;25.50;58.80;;;;;;6391177;27;20663;-50
2023/09/10 00:59:13;;;;;;;2.33;1.52;;;25.50;58.90;;;;;;6389490;27;20046;-49
2023/09/10 01:02:15;;;;;;;2.15;1.70;;;25.30;59.00;;;;;;6389719;27;20038;-51
2023/09/10 01:05:18;;;;;;;1.80;1.48;;;25.40;59.30;;;;;;6388433;27;20038;-47
2023/09/10 01:08:20;;;;;;;3.35;1.60;;;25.50;59.50;;;;;;6371692;27;20042;-43
2023/09/10 01:11:31;;;;;;;2.15;1.50;;;25.60;59.70;;;;;;6390142;27;20119;-44
2023/09/10 01:14:40;;;;;;;2.45;2.00;;;25.00;59.50;;;;;;6389875;27;20041;-44
2023/09/10 01:17:50;;;;;;;2.00;1.80;;;25.50;60.00;;;;;;6372840;27;20064;-44
2023/09/10 01:21:10;;;;;;;1.75;1.58;;;25.10;60.00;;;;;;6370715;27;20445;-44
2023/09/10 01:24:20;;;;;;;2.20;1.42;;;25.40;60.50;;;;;;6390377;27;20095;-42
2023/09/10 01:27:23;;;;;;;1.50;1.30;;;25.50;60.70;;;;;;6320580;27;20075;-43
2023/09/10 01:30:28;;;;;;;2.70;1.75;;;25.40;60.80;;;;;;6390335;27;20042;-45
2023/09/10 01:33:34;;;;;;;1.83;1.60;;;25.50;61.10;;;;;;6336108;27;20592;-43
2023/09/10 01:36:42;;;;;;;2.58;1.83;;;25.50;61.20;;;;;;6390150;27;20031;-45
2023/09/10 01:39:47;;;;;;;2.45;1.75;;;25.50;61.40;;;;;;6372614;27;20039;-43
2023/09/10 01:42:50;;;;;;;2.35;1.77;;;25.50;61.50;;;;;;6390046;27;20039;-43
2023/09/10 01:45:51;;;;;;;1.75;1.55;;;25.60;61.80;;;;;;6387775;27;20027;-45
2023/09/10 01:48:53;;;;;;;1.88;1.65;;;25.20;61.60;;;;;;6371270;27;20069;-43
2023/09/10 01:51:55;;;;;;;1.88;1.40;;;25.50;61.90;;;;;;6389797;27;20451;-44
2023/09/10 01:54:59;;;;;;;2.08;1.88;;;25.60;62.10;;;;;;6390358;27;20043;-43
2023/09/10 01:58:04;;;;;;;1.63;1.50;;;25.60;62.10;;;;;;6388183;27;20555;-44
2023/09/10 02:01:06;;;;;;;1.83;1.38;;;25.60;62.30;;;;;;6388480;27;20048;-46
2023/09/10 02:04:08;;;;;;;1.55;1.42;;;25.60;62.50;;;;;;6388329;27;20058;-43
2023/09/10 02:07:10;;;;;;;2.05;1.75;;;25.40;62.30;;;;;;6385736;27;20035;-46
2023/09/10 02:10:11;;;;;;;1.70;1.60;;;25.60;62.60;;;;;;6387310;27;20566;-43
2023/09/10 02:13:14;;;;;;;1.90;1.67;;;25.60;62.60;;;;;;6389534;27;20042;-44
2023/09/10 02:16:15;;;;;;;2.25;1.63;;;25.60;62.80;;;;;;6388776;27;20035;-43
2023/09/10 02:19:17;;;;;;;1.83;1.60;;;25.70;62.90;;;;;;6389383;27;20035;-45
2023/09/10 02:22:19;;;;;;;2.13;1.75;;;25.60;62.90;;;;;;6387511;27;20625;-46
2023/09/10 02:25:21;;;;;;;1.90;1.55;;;25.70;63.10;;;;;;6389195;27;20045;-43
2023/09/10 02:28:27;;;;;;;2.28;1.40;;;25.80;63.30;;;;;;6388834;27;20387;-43
2023/09/10 02:31:29;;;;;;;1.70;1.60;;;25.40;63.00;;;;;;6389236;27;20035;-43
2023/09/10 02:34:31;;;;;;;1.88;1.70;;;25.70;63.40;;;;;;6392295;27;20043;-44
2023/09/10 02:37:32;;;;;;;1.85;1.65;;;25.60;63.40;;;;;;6392490;27;20046;-43
2023/09/10 02:40:34;;;;;;;1.55;1.35;;;25.70;63.50;;;;;;6373974;27;20071;-44
2023/09/10 02:43:36;;;;;;;2.05;1.85;;;25.50;63.40;;;;;;6392297;27;20617;-43
2023/09/10 02:46:38;;;;;;;1.80;1.70;;;25.70;63.70;;;;;;6393790;27;20691;-45
2023/09/10 02:49:43;;;;;;;2.00;1.60;;;25.40;63.50;;;;;;6393049;27;20122;-42
2023/09/10 02:52:44;;;;;;;1.90;1.80;;;25.70;63.70;;;;;;6392190;27;20043;-44
2023/09/10 02:55:47;;;;;;;2.00;1.70;;;25.70;63.80;;;;;;6372218;27;20043;-44
2023/09/10 02:58:50;;;;;;;1.80;1.30;;;26.10;64.20;;;;;;6393022;27;20295;-44
2023/09/10 03:01:52;;;;;;;1.70;1.60;;;25.70;63.90;;;;;;6392219;27;20464;-46
2023/09/10 03:04:54;;;;;;;1.95;1.75;;;25.70;64.00;;;;;;6392990;27;20039;-43
2023/09/10 03:07:57;;;;;;;1.70;1.55;;;25.70;64.00;;;;;;6393291;27;20047;-44
2023/09/10 03:11:04;;;;;;;1.98;1.70;;;25.70;64.10;;;;;;6393059;27;20045;-45
2023/09/10 03:14:07;;;;;;;1.55;1.40;;;25.80;64.20;;;;;;6391747;27;20122;-44
2023/09/10 03:17:10;;;;;;;1.55;1.45;;;25.60;64.10;;;;;;6392423;27;20077;-42
2023/09/10 03:20:12;;;;;;;1.83;1.70;;;25.60;64.20;;;;;;6374343;27;20034;-46
2023/09/10 03:23:14;;;;;;;2.10;1.77;;;25.70;64.30;;;;;;6393543;27;20538;-44
2023/09/10 03:26:16;;;;;;;2.30;1.83;;;25.60;64.30;;;;;;6393342;27;20247;-43
2023/09/10 03:29:19;;;;;;;1.40;1.30;;;25.70;64.50;;;;;;6393701;27;20063;-45
2023/09/10 03:32:23;;;;;;;2.05;1.50;;;25.70;64.50;;;;;;6391975;27;20035;-42
2023/09/10 03:35:26;;;;;;;2.20;1.70;;;25.80;64.70;;;;;;6374715;27;20386;-45
2023/09/10 03:38:27;;;;;;;2.45;1.88;;;25.60;64.50;;;;;;6391706;27;20068;-44
2023/09/10 03:41:31;;;;;;;1.80;1.65;;;25.70;64.60;;;;;;6393279;27;20035;-44
2023/09/10 03:44:36;;;;;;;2.20;1.80;;;25.70;64.60;;;;;;6392665;27;20066;-43
2023/09/10 03:47:42;;;;;;;1.95;1.75;;;25.70;64.70;;;;;;6392728;27;20046;-46
2023/09/10 03:50:43;;;;;;;1.73;1.63;;;25.80;64.70;;;;;;6393355;27;20034;-43
2023/09/10 03:53:45;;;;;;;2.20;2.00;;;25.40;64.50;;;;;;6393084;27;20593;-43
2023/09/10 03:56:47;;;;;;;2.25;1.75;;;25.80;64.80;;;;;;6393225;27;20039;-44
2023/09/10 03:59:55;;;;;;;1.75;1.60;;;25.80;64.80;;;;;;6393519;27;20549;-43
2023/09/10 04:02:56;;;;;;;1.83;1.63;;;25.80;64.70;;;;;;6392305;27;20031;-45
2023/09/10 04:05:58;;;;;;;1.73;1.52;;;26.10;65.10;;;;;;6393185;27;20035;-42
2023/09/10 04:08:59;;;;;;;2.05;1.80;;;25.80;64.80;;;;;;6392738;27;20035;-42
2023/09/10 04:12:04;;;;;;;2.05;1.90;;;25.80;64.90;;;;;;6392567;27;20041;-43
2023/09/10 04:15:07;;;;;;;2.10;1.70;;;25.70;64.90;;;;;;6391706;27;20043;-43
2023/09/10 04:18:08;;;;;;;1.92;1.73;;;25.70;64.90;;;;;;6391868;27;20050;-44
2023/09/10 04:21:10;;;;;;;1.70;1.60;;;25.80;65.00;;;;;;6392268;27;20042;-43
2023/09/10 04:24:11;;;;;;;1.60;1.42;;;25.80;65.00;;;;;;6393036;27;20087;-44
2023/09/10 04:27:13;;;;;;;1.63;1.52;;;25.70;65.00;;;;;;6391219;27;20560;-43
2023/09/10 04:30:17;;;;;;;1.90;1.70;;;25.70;65.00;;;;;;6391512;27;20087;-43
2023/09/10 04:33:18;;;;;;;1.67;1.58;;;25.80;65.10;;;;;;6373584;27;20049;-43
2023/09/10 04:36:22;;;;;;;1.80;1.70;;;25.70;65.10;;;;;;6392439;27;20099;-44
2023/09/10 04:39:27;;;;;;;1.60;1.50;;;25.70;65.20;;;;;;6392549;27;20046;-44
2023/09/10 04:42:29;;;;;;;1.73;1.63;;;25.70;65.10;;;;;;6392794;27;20118;-43
2023/09/10 04:45:31;;;;;;;1.80;1.70;;;25.80;65.30;;;;;;6392494;27;20037;-43
2023/09/10 04:48:33;;;;;;;1.90;1.70;;;25.70;65.20;;;;;;6392791;27;20035;-45
2023/09/10 04:51:37;;;;;;;1.98;1.77;;;25.60;65.20;;;;;;6391885;27;20401;-44
2023/09/10 04:54:40;;;;;;;1.70;1.60;;;25.80;65.30;;;;;;6392141;27;20557;-43
2023/09/10 04:57:42;;;;;;;2.22;2.03;;;25.70;65.30;;;;;;6389851;27;20026;-44
2023/09/10 05:00:45;;;;;;;2.00;1.80;;;25.20;65.00;;;;;;6391917;27;20035;-43
2023/09/10 05:03:47;;;;;;;2.08;1.90;;;25.40;65.10;;;;;;6372020;27;20035;-43
2023/09/10 05:06:50;;;;;;;2.13;1.98;;;25.80;65.50;;;;;;6364915;27;20038;-43
2023/09/10 05:09:51;;;;;;;1.90;1.70;;;25.70;65.40;;;;;;6351833;27;20055;-46
2023/09/10 05:12:53;;;;;;;1.98;1.77;;;25.50;65.30;;;;;;6374383;27;20045;-43
2023/09/10 05:15:57;;;;;;;2.05;1.90;;;26.00;65.70;;;;;;6370503;27;20027;-43
2023/09/10 05:19:03;;;;;;;2.17;1.98;;;25.70;65.40;;;;;;6372937;27;20042;-42
2023/09/10 05:22:05;;;;;;;1.90;1.77;;;25.70;65.60;;;;;;6368162;27;20031;-43
2023/09/10 05:25:07;;;;;;;2.28;1.92;;;25.70;65.60;;;;;;6373320;27;20076;-44
2023/09/10 05:28:09;;;;;;;2.22;1.95;;;25.50;65.40;;;;;;6358043;27;20039;-43
2023/09/10 05:31:12;;;;;;;2.15;1.95;;;25.40;65.40;;;;;;6372761;27;20062;-43
2023/09/10 05:34:16;;;;;;;2.13;1.88;;;25.70;65.70;;;;;;6368836;27;20031;-43
2023/09/10 05:37:17;;;;;;;1.95;1.75;;;25.70;65.70;;;;;;6377136;27;20110;-45
2023/09/10 05:40:19;;;;;;;1.90;1.80;;;25.70;65.80;;;;;;6371056;27;20382;-43
2023/09/10 05:43:21;;;;;;;2.50;1.55;;;25.60;66.20;;;;;;6374622;27;20031;-43
2023/09/10 05:46:23;;;;;;;1.73;1.60;;;25.60;65.70;;;;;;6372906;27;20035;-43
2023/09/10 05:49:26;;;;;;;1.77;1.67;;;25.50;65.70;;;;;;6370588;27;20497;-43
2023/09/10 05:52:27;;;;;;;2.50;1.83;;;26.00;66.10;;;;;;6374162;27;20541;-45
2023/09/10 05:55:29;;;;;;;1.77;1.67;;;25.40;65.60;;;;;;6367354;27;20037;-43
2023/09/10 05:58:30;;;;;;;2.08;1.90;;;25.70;66.00;;;;;;6355368;27;20506;-44
2023/09/10 06:01:33;;;;;;;1.80;1.70;;;25.60;66.00;;;;;;6371561;27;20121;-44
2023/09/10 06:04:34;;;;;;;2.10;1.98;;;25.60;65.90;;;;;;6369267;27;20026;-44
2023/09/10 06:07:36;;;;;;;2.90;2.30;;;25.70;66.00;;;;;;6367680;27;20533;-44
2023/09/10 06:10:38;;;;;;;2.90;2.40;;;25.20;65.60;;;;;;6372470;27;20061;-42
2023/09/10 06:13:40;;;;;;;2.30;2.10;;;25.60;66.00;;;;;;6372537;27;20026;-43
2023/09/10 06:16:44;;;;;;;2.15;1.95;;;25.50;65.90;;;;;;6368058;27;20035;-44
2023/09/10 06:19:48;;;;;;;2.28;1.65;;;25.70;66.10;;;;;;6348470;28;20070;-42
2023/09/10 06:22:50;;;;;;;1.90;1.80;;;25.70;66.10;;;;;;6346853;28;20494;-43
2023/09/10 06:25:55;;;;;;;1.73;1.63;;;25.40;66.00;;;;;;6323172;28;20039;-44
2023/09/10 06:28:56;;;;;;;1.98;1.75;;;25.50;66.50;;;;;;6346467;28;20576;-43
2023/09/10 06:31:59;;;;;;;2.08;1.88;;;25.60;66.70;;;;;;6348907;28;20574;-43
2023/09/10 06:35:03;;;;;;;2.08;1.88;;;25.60;66.10;;;;;;6327945;28;20075;-44
2023/09/10 06:38:05;;;;;;;2.17;1.98;;;25.70;66.10;;;;;;6345341;28;20081;-42
2023/09/10 06:41:07;;;;;;;2.08;1.88;;;25.60;66.10;;;;;;6326501;28;20054;-43
2023/09/10 06:44:12;;;;;;;2.03;1.80;;;25.60;66.10;;;;;;6348398;28;20042;-44
2023/09/10 06:47:15;;;;;;;1.88;1.67;;;25.70;66.20;;;;;;6346561;28;20573;-44
2023/09/10 06:50:16;;;;;;;2.13;1.92;;;25.70;66.30;;;;;;6342932;28;20040;-44
2023/09/10 06:53:18;;;;;;;1.92;1.83;;;25.70;66.30;;;;;;6350316;28;20045;-43
2023/09/10 06:56:19;;;;;;;2.00;1.65;;;25.70;66.40;;;;;;6345994;28;20457;-43
2023/09/10 06:59:23;;;;;;;2.20;2.00;;;25.70;66.40;;;;;;6292074;28;20501;-42
2023/09/10 07:02:26;;;;;;;2.20;2.05;;;25.70;66.40;;;;;;6348458;28;20649;-43
2023/09/10 07:05:28;;;;;;;2.00;1.80;;;25.40;66.30;;;;;;6347651;28;20039;-43
2023/09/10 07:08:29;;;;;;;1.85;1.73;;;25.70;66.50;;;;;;6341016;28;20051;-43
2023/09/10 07:11:31;;;;;;;1.73;1.63;;;25.70;66.60;;;;;;6360641;28;20039;-43
2023/09/10 07:14:32;;;;;;;1.98;1.77;;;25.70;66.70;;;;;;6361122;28;20718;-42
2023/09/10 07:17:36;;;;;;;2.10;1.90;;;25.80;66.80;;;;;;6359781;28;20039;-42
2023/09/10 07:20:37;;;;;;;2.10;1.90;;;25.70;66.80;;;;;;6364489;27;20169;-45
2023/09/10 07:23:39;;;;;;;1.92;1.73;;;25.70;66.90;;;;;;6365300;28;20034;-43
2023/09/10 07:26:40;;;;;;;1.80;1.70;;;25.50;66.80;;;;;;6346164;28;20042;-43
2023/09/10 07:29:45;;;;;;;2.00;1.80;;;25.70;67.00;;;;;;6366136;28;20088;-43
2023/09/10 07:32:47;;;;;;;2.13;1.95;;;25.40;66.90;;;;;;6345187;28;20044;-42
2023/09/10 07:35:48;;;;;;;2.10;1.90;;;25.70;67.00;;;;;;6347876;28;20039;-44
2023/09/10 07:38:54;;;;;;;1.80;1.70;;;25.70;67.20;;;;;;6365757;28;20059;-44
2023/09/10 07:41:59;;;;;;;2.00;1.85;;;25.30;66.90;;;;;;6365346;28;20046;-44
2023/09/10 07:45:01;;;;;;;2.13;1.92;;;25.70;67.20;;;;;;6365689;28;20027;-43
2023/09/10 07:48:06;;;;;;;1.92;1.83;;;25.70;67.30;;;;;;6363783;28;20040;-44
2023/09/10 07:51:10;;;;;;;2.22;1.77;;;25.90;67.60;;;;;;6360810;28;20379;-43
2023/09/10 07:54:13;;;;;;;1.80;1.70;;;25.60;67.40;;;;;;6365513;28;20043;-44
2023/09/10 07:57:16;;;;;;;1.95;1.80;;;25.70;67.60;;;;;;6365441;27;20040;-44
2023/09/10 08:00:19;;;;;;;2.30;2.10;;;25.60;67.60;;;;;;6365010;28;20046;-44
2023/09/10 08:03:24;;;;;;;2.60;1.65;;;25.50;67.60;;;;;;6365858;28;20050;-43
2023/09/10 08:06:26;;;;;;;2.10;1.90;;;25.70;67.60;;;;;;6347218;28;20045;-45
2023/09/10 08:09:29;;;;;;;1.98;1.70;;;25.70;67.90;;;;;;6365796;28;20050;-45
2023/09/10 08:12:30;;;;;;;2.13;1.67;;;25.60;67.90;;;;;;6365131;28;20035;-43
2023/09/10 08:15:34;;;;;;;2.28;1.70;;;25.70;68.10;;;;;;6365018;28;20092;-44
2023/09/10 08:18:36;;;;;;;2.25;2.03;;;25.60;68.10;;;;;;6346228;28;20138;-44
2023/09/10 08:21:38;;;;;;;2.08;1.88;;;25.50;68.10;;;;;;6365438;28;20035;-43
2023/09/10 08:24:40;;;;;;;1.80;1.70;;;25.70;68.20;;;;;;6365744;28;20274;-43
2023/09/10 08:27:41;;;;;;;1.50;1.35;;;25.50;68.20;;;;;;6360813;28;20494;-43
2023/09/10 08:30:43;;;;;;;1.90;1.73;;;25.60;68.30;;;;;;6362277;27;20043;-43
2023/09/10 08:33:45;;;;;;;2.10;1.50;;;25.50;68.40;;;;;;6362796;28;20259;-47
2023/09/10 08:36:47;;;;;;;1.80;1.70;;;25.60;68.50;;;;;;6364310;28;20047;-43
2023/09/10 08:39:50;;;;;;;1.95;1.85;;;25.60;68.70;;;;;;6361105;28;20038;-43
2023/09/10 08:43:01;;;;;;;1.65;1.52;;;25.20;68.40;;;;;;6363622;28;20050;-43
2023/09/10 08:46:11;;;;;;;1.70;1.60;;;25.50;68.80;;;;;;6347957;28;20039;-42
2023/09/10 08:49:19;;;;;;;2.22;1.85;;;25.50;68.80;;;;;;6345644;28;20514;-43
2023/09/10 08:52:21;;;;;;;1.45;1.35;;;25.50;69.00;;;;;;6364558;28;20277;-45
2023/09/10 08:55:22;;;;;;;1.73;1.63;;;25.50;69.10;;;;;;6345372;28;20043;-44
2023/09/10 08:58:27;;;;;;;1.80;1.58;;;25.30;69.10;;;;;;6363347;27;20077;-43
2023/09/10 09:01:31;;;;;;;1.70;1.60;;;25.30;69.10;;;;;;6345021;28;20283;-44
2023/09/10 09:04:33;;;;;;;1.70;1.55;;;25.60;69.40;;;;;;6363983;28;20088;-43
2023/09/10 09:07:41;;;;;;;1.80;1.70;;;25.30;69.30;;;;;;6364245;28;20035;-43
2023/09/10 09:10:45;;;;;;;1.58;1.48;;;25.70;69.60;;;;;;6363656;28;20043;-44
2023/09/10 09:13:52;;;;;;;1.60;1.50;;;25.60;69.70;;;;;;6363732;28;20217;-45
2023/09/10 09:16:54;;;;;;;1.85;1.67;;;25.60;69.70;;;;;;6363797;28;20039;-44
2023/09/10 09:20:03;;;;;;;1.55;1.45;;;25.60;69.70;;;;;;6362931;28;20050;-44
2023/09/10 09:23:11;;;;;;;1.52;1.42;;;25.50;69.70;;;;;;6362311;28;20038;-44
2023/09/10 09:26:14;;;;;;;1.50;1.40;;;25.60;69.80;;;;;;6345248;28;20110;-44
2023/09/10 09:29:16;;;;;;;1.77;1.67;;;25.60;69.90;;;;;;6363897;28;20564;-44
2023/09/10 09:32:18;;;;;;;1.70;1.60;;;25.70;70.00;;;;;;6362015;28;20039;-43
2023/09/10 09:35:22;;;;;;;1.92;1.73;;;25.60;70.00;;;;;;6362729;28;20047;-43
2023/09/10 09:38:32;;;;;;;2.20;2.00;;;25.60;70.10;;;;;;6363324;27;20058;-42
2023/09/10 09:41:36;;;;;;;1.63;1.52;;;25.60;69.90;;;;;;6359412;27;20553;-43
2023/09/10 09:44:37;;;;;;;1.70;1.42;;;25.60;70.20;;;;;;6342830;28;20262;-44
2023/09/10 09:47:45;;;;;;;1.98;1.63;;;25.20;70.00;;;;;;6362473;28;20398;-46
2023/09/10 09:50:47;;;;;;;1.90;1.75;;;25.80;70.50;;;;;;6344038;28;20118;-43
2023/09/10 09:53:49;;;;;;;2.20;2.00;;;25.60;70.40;;;;;;6363594;28;20043;-42
2023/09/10 09:56:51;;;;;;;2.15;1.98;;;25.70;70.50;;;;;;6363202;28;20043;-44
2023/09/10 09:59:55;;;;;;;1.98;1.70;;;25.60;70.40;;;;;;6363077;27;20070;-43
2023/09/10 10:02:57;;;;;;;1.88;1.77;;;25.70;70.50;;;;;;6361373;28;20047;-42
2023/09/10 10:05:59;;;;;;;1.70;1.60;;;25.60;70.50;;;;;;6361655;28;20093;-43
2023/09/10 10:09:01;;;;;;;2.65;2.22;;;25.60;70.60;;;;;;6361995;28;20459;-43
2023/09/10 10:12:03;;;;;;;2.67;2.05;;;25.90;70.90;;;;;;6362896;28;20043;-44
2023/09/10 10:15:08;;;;;;;2.42;2.10;;;25.50;70.60;;;;;;6327391;28;20403;-43
2023/09/10 10:18:10;;;;;;;1.83;1.73;;;25.60;70.80;;;;;;6361686;28;20035;-43
2023/09/10 10:21:14;;;;;;;2.30;2.10;;;25.50;70.80;;;;;;6360417;28;20092;-45
2023/09/10 10:24:17;;;;;;;2.00;1.60;;;25.50;70.80;;;;;;6346551;28;20042;-43
2023/09/10 10:27:20;;;;;;;1.98;1.77;;;25.60;71.00;;;;;;6342109;28;20031;-45
2023/09/10 10:30:25;;;;;;;2.15;1.95;;;25.50;70.90;;;;;;6342949;28;20524;-44
2023/09/10 10:33:29;;;;;;;2.10;1.90;;;25.50;71.00;;;;;;6343528;28;20036;-43
2023/09/10 10:36:50;;;;;;;2.00;1.80;;;25.60;71.20;;;;;;6362477;28;20035;-44
2023/09/10 10:39:57;;;;;;;1.60;1.50;;;25.40;71.20;;;;;;6361926;27;20073;-43
2023/09/10 10:43:07;;;;;;;2.33;2.13;;;25.50;71.30;;;;;;6361545;28;20043;-43
2023/09/10 10:46:09;;;;;;;2.17;1.97;;;25.50;71.40;;;;;;6361644;28;20083;-43
2023/09/10 10:49:11;;;;;;;2.10;1.90;;;25.70;71.60;;;;;;6361279;28;20089;-44
2023/09/10 10:52:16;;;;;;;2.47;2.28;;;25.50;71.60;;;;;;6343344;28;20039;-44
2023/09/10 10:55:18;;;;;;;2.20;2.00;;;25.50;71.60;;;;;;6363078;27;20034;-43
2023/09/10 10:58:23;;;;;;;2.95;1.92;;;25.60;71.70;;;;;;6364946;27;20269;-44
2023/09/10 11:01:24;;;;;;;1.90;1.80;;;25.70;71.80;;;;;;6331515;28;20039;-43
2023/09/10 11:04:28;;;;;;;2.55;1.83;;;25.50;71.70;;;;;;6366418;28;20050;-44
2023/09/10 11:07:33;;;;;;;2.38;1.90;;;25.60;71.80;;;;;;6365495;28;20059;-44
2023/09/10 11:10:40;;;;;;;1.90;1.80;;;25.50;71.80;;;;;;6366519;28;20051;-44
2023/09/10 11:13:59;;;;;;;2.13;1.92;;;25.50;71.80;;;;;;6366457;28;20039;-44
2023/09/10 11:17:21;;;;;;;2.00;1.83;;;25.10;71.60;;;;;;6366973;28;20042;-44
2023/09/10 11:20:48;;;;;;;2.13;1.92;;;25.50;72.00;;;;;;6365569;28;20039;-45
2023/09/10 11:24:09;;;;;;;2.10;1.80;;;25.50;72.00;;;;;;6351545;28;20541;-44
2023/09/10 11:27:21;;;;;;;4.50;1.90;;;25.50;72.00;;;;;;6364372;28;20140;-45
2023/09/10 11:30:24;;;;;;;1.73;1.63;;;25.60;72.00;;;;;;6365822;28;20737;-43
2023/09/10 11:33:30;;;;;;;2.25;1.80;;;25.60;72.00;;;;;;6365898;28;20216;-44
2023/09/10 11:36:35;;;;;;;2.03;1.90;;;25.60;72.00;;;;;;6347930;28;20035;-44
2023/09/10 11:39:37;;;;;;;1.98;1.80;;;25.60;72.00;;;;;;6365505;28;20246;-43
2023/09/10 11:42:43;;;;;;;2.05;1.85;;;25.50;71.90;;;;;;6347027;28;20463;-43
2023/09/10 11:45:45;;;;;;;2.25;1.70;;;25.60;72.00;;;;;;6347091;28;20041;-43
2023/09/10 11:48:46;;;;;;;2.42;2.22;;;25.50;71.90;;;;;;6366072;28;20054;-44
2023/09/10 11:51:50;;;;;;;2.35;1.98;;;25.60;72.00;;;;;;6365747;28;20043;-45
2023/09/10 11:54:53;;;;;;;2.45;2.17;;;25.50;71.80;;;;;;6365721;28;20043;-45
2023/09/10 11:57:55;;;;;;;2.20;2.00;;;25.50;71.80;;;;;;6364485;27;20410;-45
2023/09/10 12:00:57;;;;;;;2.17;1.98;;;25.20;71.40;;;;;;6366016;28;20548;-43
2023/09/10 12:04:00;;;;;;;2.30;1.98;;;25.70;71.90;;;;;;6363880;28;20115;-45
2023/09/10 12:07:02;;;;;;;2.38;2.15;;;25.30;71.50;;;;;;6365077;27;20325;-43
2023/09/10 12:10:04;;;;;;;2.33;2.13;;;25.70;71.90;;;;;;6361100;28;20068;-43
2023/09/10 12:13:08;;;;;;;2.10;1.90;;;25.50;71.60;;;;;;6363883;28;20032;-43
2023/09/10 12:16:15;;;;;;;2.38;2.17;;;25.40;71.50;;;;;;6365222;28;20335;-43
2023/09/10 12:19:17;;;;;;;2.40;2.15;;;25.70;71.50;;;;;;6363382;28;20042;-46
2023/09/10 12:22:19;;;;;;;2.25;2.05;;;25.70;71.60;;;;;;6365008;28;20027;-43
2023/09/10 12:25:21;;;;;;;2.25;2.05;;;25.70;71.60;;;;;;6362383;28;20038;-44
2023/09/10 12:28:23;;;;;;;2.55;2.28;;;25.70;71.50;;;;;;6364321;28;20521;-44
2023/09/10 12:31:25;;;;;;;2.25;2.05;;;25.60;71.30;;;;;;6364974;28;20034;-43
2023/09/10 12:34:27;;;;;;;2.30;2.10;;;25.50;71.10;;;;;;6365694;28;20031;-44
2023/09/10 12:37:29;;;;;;;2.30;2.10;;;25.60;71.10;;;;;;6346030;28;20043;-43
2023/09/10 12:40:30;;;;;;;2.60;2.40;;;25.70;71.10;;;;;;6364776;28;20051;-44
2023/09/10 12:43:33;;;;;;;1.92;1.77;;;25.70;71.00;;;;;;6364532;28;20219;-43
2023/09/10 12:46:34;;;;;;;2.42;2.25;;;25.60;70.80;;;;;;6346809;28;20482;-44
2023/09/10 12:49:36;;;;;;;2.42;2.20;;;25.40;70.60;;;;;;6327427;27;20096;-45
2023/09/10 12:52:39;;;;;;;2.20;2.00;;;25.60;70.70;;;;;;6337730;28;20042;-44
2023/09/10 12:55:41;;;;;;;2.20;2.00;;;25.50;70.50;;;;;;6341033;28;20120;-44
2023/09/10 12:58:45;;;;;;;2.60;2.30;;;25.80;70.70;;;;;;6323624;27;20429;-43
2023/09/10 13:01:48;;;;;;;2.22;2.03;;;25.60;70.60;;;;;;6308538;28;20681;-42
2023/09/10 13:04:52;;;;;;;1.70;1.60;;;25.70;70.70;;;;;;6337367;28;20035;-44
2023/09/10 13:07:54;;;;;;;3.20;2.13;;;25.50;70.70;;;;;;6323831;28;20107;-46
2023/09/10 13:10:56;;;;;;;2.00;1.80;;;25.70;70.80;;;;;;6339425;28;20106;-44
2023/09/10 13:14:00;;;;;;;1.80;1.60;;;25.60;70.50;;;;;;6339003;28;20397;-43
2023/09/10 13:17:03;;;;;;;1.98;1.77;;;25.70;70.30;;;;;;6343762;27;20156;-46
2023/09/10 13:20:05;;;;;;;2.08;1.58;;;25.50;70.10;;;;;;6342075;28;20078;-43
2023/09/10 13:23:07;;;;;;;1.75;1.65;;;25.80;70.20;;;;;;6343053;28;20512;-45
2023/09/10 13:26:09;;;;;;;1.75;1.65;;;24.90;69.50;;;;;;6337355;28;20065;-46
2023/09/10 13:29:11;;;;;;;2.03;1.77;;;25.80;70.40;;;;;;6340163;28;20648;-45
2023/09/10 13:32:12;;;;;;;1.90;1.80;;;25.70;70.00;;;;;;6343871;28;20035;-44
2023/09/10 13:35:14;;;;;;;2.03;1.70;;;25.90;70.10;;;;;;6341941;28;20708;-45
2023/09/10 13:38:15;;;;;;;1.60;1.50;;;25.90;70.30;;;;;;6343054;27;20062;-44
2023/09/10 13:41:17;;;;;;;1.85;1.67;;;25.80;70.20;;;;;;6341567;28;20557;-44
2023/09/10 13:44:19;;;;;;;1.67;1.58;;;25.80;70.10;;;;;;6343270;28;20076;-45
2023/09/10 13:47:21;;;;;;;1.92;1.80;;;25.60;69.50;;;;;;6341967;28;20069;-44
2023/09/10 13:50:22;;;;;;;2.22;1.60;;;25.90;69.60;;;;;;6342243;28;20107;-44
2023/09/10 13:53:24;;;;;;;1.85;1.60;;;25.80;69.40;;;;;;6344477;28;20040;-43
2023/09/10 13:56:26;;;;;;;2.17;1.80;;;25.80;69.30;;;;;;6354243;28;20571;-43
2023/09/10 13:59:28;;;;;;;1.63;1.52;;;25.70;69.20;;;;;;6357929;27;20406;-45
2023/09/10 14:02:30;;;;;;;2.05;1.55;;;25.70;69.20;;;;;;6362317;28;20330;-46
2023/09/10 14:05:32;;;;;;;1.70;1.60;;;25.90;69.30;;;;;;6362302;28;20487;-44
2023/09/10 14:08:33;;;;;;;2.95;1.80;;;26.00;69.40;;;;;;6354093;28;20542;-44
2023/09/10 14:11:35;;;;;;;1.52;1.42;;;26.00;69.40;;;;;;6343661;28;20397;-44
2023/09/10 14:14:37;;;;;;;1.70;1.60;;;25.80;69.10;;;;;;6362820;28;20493;-44
2023/09/10 14:17:39;;;;;;;1.58;1.48;;;25.90;69.10;;;;;;6361341;28;20063;-43
2023/09/10 14:20:41;;;;;;;1.77;1.67;;;25.80;69.00;;;;;;6353425;28;20578;-44
2023/09/10 14:23:43;;;;;;;1.77;1.40;;;25.80;68.90;;;;;;6362542;28;20486;-43
2023/09/10 14:26:44;;;;;;;1.70;1.60;;;25.80;69.00;;;;;;6356995;28;20042;-44
2023/09/10 14:29:46;;;;;;;1.70;1.60;;;25.80;68.70;;;;;;6342518;28;20076;-42
2023/09/10 14:32:48;;;;;;;1.60;1.40;;;25.80;69.20;;;;;;6347670;28;20054;-42
2023/09/10 14:35:52;;;;;;;1.70;1.60;;;25.90;68.80;;;;;;6360709;28;20066;-46
2023/09/10 14:38:53;;;;;;;1.48;1.38;;;25.80;68.40;;;;;;6344341;28;20096;-43
2023/09/10 14:41:55;;;;;;;1.75;1.65;;;26.00;68.50;;;;;;6358296;28;20082;-43
2023/09/10 14:44:57;;;;;;;1.30;1.20;;;25.80;68.20;;;;;;6335142;28;20457;-44
2023/09/10 14:47:58;;;;;;;1.83;1.52;;;25.80;68.10;;;;;;6341321;28;20047;-42
2023/09/10 14:51:00;;;;;;;1.40;1.30;;;25.80;67.90;;;;;;6361727;28;20050;-43
2023/09/10 14:54:07;;;;;;;1.63;1.40;;;25.60;67.70;;;;;;6352623;28;20510;-43
2023/09/10 14:57:08;;;;;;;2.53;1.35;;;25.90;67.80;;;;;;6361844;27;20429;-44
2023/09/10 15:00:11;;;;;;;1.80;1.35;;;26.00;67.80;;;;;;6361340;28;20288;-43
2023/09/10 15:03:12;;;;;;;1.55;1.38;;;25.40;67.20;;;;;;6361305;28;20031;-42
2023/09/10 15:06:17;;;;;;;1.70;1.60;;;25.90;67.60;;;;;;6353701;28;20059;-44
2023/09/10 15:09:20;;;;;;;1.60;1.50;;;25.90;67.60;;;;;;6361702;27;20343;-43
2023/09/10 15:12:21;;;;;;;1.88;1.40;;;25.80;67.50;;;;;;6353391;28;20031;-45
2023/09/10 15:15:24;;;;;;;1.58;1.48;;;26.00;67.70;;;;;;6359612;28;20046;-43
2023/09/10 15:18:28;;;;;;;1.45;1.25;;;26.30;67.90;;;;;;6353419;28;20074;-43
2023/09/10 15:21:30;;;;;;;2.28;1.73;;;25.90;67.50;;;;;;6361906;28;20753;-43
2023/09/10 15:24:33;;;;;;;1.58;1.48;;;25.70;67.40;;;;;;6361673;28;20038;-44
2023/09/10 15:27:36;;;;;;;2.05;1.60;;;25.80;67.40;;;;;;6355005;28;20039;-44
2023/09/10 15:30:40;;;;;;;1.73;1.52;;;26.00;67.60;;;;;;6359711;28;20344;-44
2023/09/10 15:33:42;;;;;;;1.30;1.20;;;25.90;67.10;;;;;;6360770;28;20035;-43
2023/09/10 15:36:44;;;;;;;2.22;1.40;;;26.30;67.50;;;;;;6343801;28;20408;-44
2023/09/10 15:39:45;;;;;;;1.70;1.50;;;25.90;67.10;;;;;;6352208;27;20409;-43
2023/09/10 15:42:47;;;;;;;1.50;1.27;;;26.00;67.10;;;;;;6367015;28;20526;-44
2023/09/10 15:45:49;;;;;;;1.52;1.25;;;26.00;66.90;;;;;;6348666;28;20055;-44
2023/09/10 15:48:51;;;;;;;1.75;1.55;;;25.90;66.80;;;;;;6360948;28;20047;-44
2023/09/10 15:51:53;;;;;;;1.50;1.40;;;26.00;66.80;;;;;;6357574;28;20414;-42
2023/09/10 15:54:55;;;;;;;1.73;1.50;;;26.00;66.70;;;;;;6366233;28;20074;-44